Main page
METAR-TAF:

METAR-TAF

Airports :

Hafar Al-Batin, Saudi Arabia

King Khalid Military City

latitude: 27-54N, longitude: 045-32E, elevation: 413 m

Current weather observation

The report was made 1 hour and 16 minutes ago, at 16:00 UTC
Wind 10 kt from the East/Northeast
Temperature 37°C
Humidity 20%
Pressure 1007 hPa
Visibility 10 km or more
no clouds below 1500 m and no cumulonimbus

METAR: OEKK 231600Z 06010KT CAVOK 37/10 Q1007

Time: 20:16 (17:16 UTC)

Forecast

The report was made 12 hours and 16 minutes ago, at 05:00 UTC
Forecast valid from 23 at 06 UTC to 23 at 20 UTC
Wind 10 kt from the North with gusts up to 20 kt
Visibility: 7000 m
Clear sky
Temporary
from 22 at 06 UTC to 22 at 16 UTC
Visibility: 3000 m
widespread dust, Blowing dust
Probability 30% :
Temporary
from 22 at 06 UTC to 22 at 12 UTC
Visibility: 1500 m

TAF: OEKK 230500Z 2306/2320 01010G20KT 7000 SKC TEMPO 2206/2216 3000 DU BLDU PROB30 TEMPO 2206/2212 1500

Weather observations and forecasts of more than 4000 airports (METAR and TAF reports).

The available stations are represented by yellow and red dots on the map.

Hover mouse over dot to see the name of the station.

Then click to see weather observations and forecasts.

To change the map : click on the green buttons with a black cross to zoom in, on the green button with a dash to zoom out, or on the green arrows for adjacent maps.


METAR-TAF: